sensor_id;sensor_type;location;lat;lon;timestamp;pressure;altitude;pressure_sealevel;temperature;humidity
69171;BME280;56279;47.902;12.308;2023-07-13T00:00:04;95374.97;;;18.98;93.30
69171;BME280;56279;47.902;12.308;2023-07-13T00:02:16;95359.72;;;18.99;93.12
69171;BME280;56279;47.902;12.308;2023-07-13T00:04:20;95360.06;;;18.97;93.26
69171;BME280;56279;47.902;12.308;2023-07-13T00:06:22;95355.00;;;18.96;93.19
69171;BME280;56279;47.902;12.308;2023-07-13T00:08:23;95356.13;;;18.95;93.16
69171;BME280;56279;47.902;12.308;2023-07-13T00:10:25;95356.44;;;18.93;93.49
69171;BME280;56279;47.902;12.308;2023-07-13T00:12:33;95344.50;;;18.91;93.35
69171;BME280;56279;47.902;12.308;2023-07-13T00:14:35;95328.00;;;18.89;93.87
69171;BME280;56279;47.902;12.308;2023-07-13T00:16:38;95308.06;;;18.86;93.99
69171;BME280;56279;47.902;12.308;2023-07-13T00:18:42;95303.84;;;18.85;94.01
69171;BME280;56279;47.902;12.308;2023-07-13T00:20:43;95312.50;;;18.82;93.30
69171;BME280;56279;47.902;12.308;2023-07-13T00:22:45;95321.63;;;18.81;93.48
69171;BME280;56279;47.902;12.308;2023-07-13T00:24:46;95317.72;;;18.79;93.92
69171;BME280;56279;47.902;12.308;2023-07-13T00:26:48;95323.06;;;18.79;93.98
69171;BME280;56279;47.902;12.308;2023-07-13T00:28:49;95310.38;;;18.76;93.40
69171;BME280;56279;47.902;12.308;2023-07-13T00:30:51;95309.13;;;18.73;92.71
69171;BME280;56279;47.902;12.308;2023-07-13T00:32:52;95308.69;;;18.71;93.15
69171;BME280;56279;47.902;12.308;2023-07-13T00:34:54;95314.22;;;18.66;93.23
69171;BME280;56279;47.902;12.308;2023-07-13T00:36:55;95308.44;;;18.64;93.52
69171;BME280;56279;47.902;12.308;2023-07-13T00:38:57;95306.41;;;18.61;93.58
69171;BME280;56279;47.902;12.308;2023-07-13T00:40:59;95305.94;;;18.59;94.20
69171;BME280;56279;47.902;12.308;2023-07-13T00:43:19;95310.50;;;18.58;94.07
69171;BME280;56279;47.902;12.308;2023-07-13T00:50:13;95306.59;;;18.56;94.64
69171;BME280;56279;47.902;12.308;2023-07-13T00:52:16;95306.59;;;18.56;94.42
69171;BME280;56279;47.902;12.308;2023-07-13T00:54:29;95297.03;;;18.55;94.26
69171;BME280;56279;47.902;12.308;2023-07-13T00:56:32;95305.03;;;18.55;94.47
69171;BME280;56279;47.902;12.308;2023-07-13T00:58:35;95302.38;;;18.55;94.68
69171;BME280;56279;47.902;12.308;2023-07-13T01:00:38;95300.78;;;18.54;94.55
69171;BME280;56279;47.902;12.308;2023-07-13T01:02:42;95301.88;;;18.53;94.89
69171;BME280;56279;47.902;12.308;2023-07-13T01:04:44;95301.88;;;18.53;94.94
69171;BME280;56279;47.902;12.308;2023-07-13T01:06:46;95306.47;;;18.52;94.63
69171;BME280;56279;47.902;12.308;2023-07-13T01:08:48;95318.72;;;18.53;94.98
69171;BME280;56279;47.902;12.308;2023-07-13T01:10:55;95320.28;;;18.54;94.10
69171;BME280;56279;47.902;12.308;2023-07-13T01:12:57;95310.06;;;18.56;94.21
69171;BME280;56279;47.902;12.308;2023-07-13T01:15:01;95312.38;;;18.58;93.53
69171;BME280;56279;47.902;12.308;2023-07-13T01:17:04;95321.66;;;18.60;93.47
69171;BME280;56279;47.902;12.308;2023-07-13T01:19:35;95332.34;;;18.60;93.54
69171;BME280;56279;47.902;12.308;2023-07-13T01:21:37;95333.91;;;18.61;93.19
69171;BME280;56279;47.902;12.308;2023-07-13T01:23:39;95332.03;;;18.62;93.01
69171;BME280;56279;47.902;12.308;2023-07-13T01:25:41;95338.13;;;18.62;92.85
69171;BME280;56279;47.902;12.308;2023-07-13T01:27:42;95329.38;;;18.62;92.57
69171;BME280;56279;47.902;12.308;2023-07-13T01:29:45;95324.31;;;18.60;92.71
69171;BME280;56279;47.902;12.308;2023-07-13T01:31:48;95328.88;;;18.60;92.96
69171;BME280;56279;47.902;12.308;2023-07-13T01:33:49;95333.13;;;18.61;93.20
69171;BME280;56279;47.902;12.308;2023-07-13T01:35:51;95336.91;;;18.60;92.51
69171;BME280;56279;47.902;12.308;2023-07-13T01:37:53;95337.69;;;18.60;92.50
69171;BME280;56279;47.902;12.308;2023-07-13T01:39:54;95336.91;;;18.60;92.69
69171;BME280;56279;47.902;12.308;2023-07-13T01:41:55;95339.25;;;18.61;92.66
69171;BME280;56279;47.902;12.308;2023-07-13T01:43:57;95344.47;;;18.58;93.12
69171;BME280;56279;47.902;12.308;2023-07-13T01:45:58;95338.38;;;18.57;93.34
69171;BME280;56279;47.902;12.308;2023-07-13T01:47:59;95342.91;;;18.57;92.98
69171;BME280;56279;47.902;12.308;2023-07-13T01:50:00;95330.19;;;18.54;93.41
69171;BME280;56279;47.902;12.308;2023-07-13T01:52:02;95329.75;;;18.52;94.00
69171;BME280;56279;47.902;12.308;2023-07-13T01:54:06;95326.63;;;18.50;93.93
69171;BME280;56279;47.902;12.308;2023-07-13T01:56:07;95323.81;;;18.46;94.48
69171;BME280;56279;47.902;12.308;2023-07-13T01:58:09;95321.78;;;18.43;94.38
69171;BME280;56279;47.902;12.308;2023-07-13T02:00:11;95321.78;;;18.43;94.40
69171;BME280;56279;47.902;12.308;2023-07-13T02:02:18;95318.94;;;18.40;94.48
69171;BME280;56279;47.902;12.308;2023-07-13T02:04:19;95319.59;;;18.37;94.76
69171;BME280;56279;47.902;12.308;2023-07-13T02:06:20;95326.06;;;18.36;94.79
69171;BME280;56279;47.902;12.308;2023-07-13T02:08:23;95314.91;;;18.34;95.08
69171;BME280;56279;47.902;12.308;2023-07-13T02:10:24;95315.22;;;18.32;95.18
69171;BME280;56279;47.902;12.308;2023-07-13T02:12:25;95323.56;;;18.31;95.24
69171;BME280;56279;47.902;12.308;2023-07-13T02:14:28;95323.91;;;18.29;95.13
69171;BME280;56279;47.902;12.308;2023-07-13T02:16:30;95331.78;;;18.26;95.17
69171;BME280;56279;47.902;12.308;2023-07-13T02:18:31;95325.66;;;18.25;95.23
69171;BME280;56279;47.902;12.308;2023-07-13T02:20:33;95328.66;;;18.24;95.32
69171;BME280;56279;47.902;12.308;2023-07-13T02:22:34;95342.47;;;18.26;95.16
69171;BME280;56279;47.902;12.308;2023-07-13T02:24:38;95337.47;;;18.24;95.46
69171;BME280;56279;47.902;12.308;2023-07-13T02:26:44;95342.00;;;18.24;95.07
69171;BME280;56279;47.902;12.308;2023-07-13T03:41:39;95391.53;;;18.21;95.98
69171;BME280;56279;47.902;12.308;2023-07-13T03:43:41;95393.41;;;18.21;96.10
69171;BME280;56279;47.902;12.308;2023-07-13T03:45:42;95397.66;;;18.22;95.90
69171;BME280;56279;47.902;12.308;2023-07-13T03:47:44;95404.56;;;18.23;95.64
69171;BME280;56279;47.902;12.308;2023-07-13T03:49:46;95416.81;;;18.24;95.81
69171;BME280;56279;47.902;12.308;2023-07-13T03:51:48;95410.84;;;18.27;95.56
69171;BME280;56279;47.902;12.308;2023-07-13T03:53:50;95412.09;;;18.29;95.59
69171;BME280;56279;47.902;12.308;2023-07-13T03:55:53;95416.00;;;18.32;95.57
69171;BME280;56279;47.902;12.308;2023-07-13T03:57:59;95413.34;;;18.32;95.84
69171;BME280;56279;47.902;12.308;2023-07-13T04:00:01;95411.13;;;18.34;96.05
69171;BME280;56279;47.902;12.308;2023-07-13T04:02:05;95418.47;;;18.37;95.80
69171;BME280;56279;47.902;12.308;2023-07-13T04:04:08;95414.69;;;18.38;96.11
69171;BME280;56279;47.902;12.308;2023-07-13T04:06:19;95419.72;;;18.39;95.87
69171;BME280;56279;47.902;12.308;2023-07-13T04:08:27;95414.53;;;18.43;95.84
69171;BME280;56279;47.902;12.308;2023-07-13T04:10:28;95424.88;;;18.44;95.99
69171;BME280;56279;47.902;12.308;2023-07-13T04:12:31;95420.81;;;18.47;95.84
69171;BME280;56279;47.902;12.308;2023-07-13T04:14:32;95432.75;;;18.49;95.73
69171;BME280;56279;47.902;12.308;2023-07-13T04:16:34;95438.88;;;18.50;95.88
69171;BME280;56279;47.902;12.308;2023-07-13T04:18:35;95438.88;;;18.50;95.18
69171;BME280;56279;47.902;12.308;2023-07-13T04:20:37;95439.50;;;18.47;95.29
69171;BME280;56279;47.902;12.308;2023-07-13T04:22:38;95431.84;;;18.45;95.53
69171;BME280;56279;47.902;12.308;2023-07-13T04:24:39;95439.03;;;18.45;95.72
69171;BME280;56279;47.902;12.308;2023-07-13T04:26:40;95439.84;;;18.45;95.59
69171;BME280;56279;47.902;12.308;2023-07-13T04:28:42;95444.38;;;18.45;94.90
69171;BME280;56279;47.902;12.308;2023-07-13T04:30:43;95434.03;;;18.43;95.39
69171;BME280;56279;47.902;12.308;2023-07-13T04:32:46;95432.31;;;18.39;95.50
69171;BME280;56279;47.902;12.308;2023-07-13T04:34:49;95443.00;;;18.39;95.52
69171;BME280;56279;47.902;12.308;2023-07-13T04:36:55;95444.88;;;18.38;94.93
69171;BME280;56279;47.902;12.308;2023-07-13T04:38:56;95450.53;;;18.37;94.51
69171;BME280;56279;47.902;12.308;2023-07-13T04:41:02;95453.09;;;18.33;94.69
69171;BME280;56279;47.902;12.308;2023-07-13T04:43:03;95455.75;;;18.33;94.34
69171;BME280;56279;47.902;12.308;2023-07-13T04:45:06;95461.72;;;18.30;94.62
69171;BME280;56279;47.902;12.308;2023-07-13T04:47:08;95466.28;;;18.30;94.07
69171;BME280;56279;47.902;12.308;2023-07-13T04:49:09;95466.28;;;18.30;94.59
69171;BME280;56279;47.902;12.308;2023-07-13T04:51:10;95467.88;;;18.31;94.52
69171;BME280;56279;47.902;12.308;2023-07-13T04:53:12;95467.88;;;18.31;94.34
69171;BME280;56279;47.902;12.308;2023-07-13T04:55:18;95467.09;;;18.30;94.40
69171;BME280;56279;47.902;12.308;2023-07-13T04:57:20;95481.75;;;18.24;93.84
69171;BME280;56279;47.902;12.308;2023-07-13T04:59:21;95477.34;;;18.20;94.23
69171;BME280;56279;47.902;12.308;2023-07-13T05:01:23;95481.75;;;18.16;94.27
69171;BME280;56279;47.902;12.308;2023-07-13T05:03:24;95480.81;;;18.12;93.93
69171;BME280;56279;47.902;12.308;2023-07-13T05:05:26;95486.81;;;18.09;94.04
69171;BME280;56279;47.902;12.308;2023-07-13T05:07:27;95482.59;;;18.08;93.64
69171;BME280;56279;47.902;12.308;2023-07-13T05:09:29;95483.22;;;18.05;93.51
69171;BME280;56279;47.902;12.308;2023-07-13T05:11:30;95487.75;;;18.04;93.34
69171;BME280;56279;47.902;12.308;2023-07-13T05:13:32;95485.88;;;18.05;93.24
69171;BME280;56279;47.902;12.308;2023-07-13T05:15:33;95490.94;;;18.06;92.77
69171;BME280;56279;47.902;12.308;2023-07-13T05:17:35;95491.22;;;18.05;92.99
69171;BME280;56279;47.902;12.308;2023-07-13T05:19:36;95496.56;;;18.05;93.06
69171;BME280;56279;47.902;12.308;2023-07-13T05:21:37;95494.22;;;18.03;92.53
69171;BME280;56279;47.902;12.308;2023-07-13T05:23:39;95500.53;;;17.99;92.59
69171;BME280;56279;47.902;12.308;2023-07-13T05:25:42;95494.06;;;18.00;92.56
69171;BME280;56279;47.902;12.308;2023-07-13T05:27:43;95500.19;;;18.00;93.11
69171;BME280;56279;47.902;12.308;2023-07-13T05:29:46;95493.44;;;18.03;92.74
69171;BME280;56279;47.902;12.308;2023-07-13T05:31:48;95495.94;;;18.08;93.12
69171;BME280;56279;47.902;12.308;2023-07-13T05:33:50;95502.53;;;18.10;92.89
69171;BME280;56279;47.902;12.308;2023-07-13T05:35:52;95502.19;;;18.12;92.86
69171;BME280;56279;47.902;12.308;2023-07-13T05:37:53;95510.69;;;18.14;92.65
69171;BME280;56279;47.902;12.308;2023-07-13T05:39:54;95509.25;;;18.16;92.51
69171;BME280;56279;47.902;12.308;2023-07-13T05:41:56;95512.38;;;18.18;92.50
69171;BME280;56279;47.902;12.308;2023-07-13T05:43:57;95507.53;;;18.20;92.62
69171;BME280;56279;47.902;12.308;2023-07-13T05:45:58;95509.88;;;18.22;92.34
69171;BME280;56279;47.902;12.308;2023-07-13T05:48:00;95509.25;;;18.25;92.62
69171;BME280;56279;47.902;12.308;2023-07-13T05:50:01;95509.03;;;18.30;92.34
69171;BME280;56279;47.902;12.308;2023-07-13T05:52:02;95512.00;;;18.37;92.23
69171;BME280;56279;47.902;12.308;2023-07-13T05:54:04;95516.53;;;18.45;92.56
69171;BME280;56279;47.902;12.308;2023-07-13T05:56:05;95522.53;;;18.50;91.91
69171;BME280;56279;47.902;12.308;2023-07-13T05:58:06;95516.97;;;18.55;91.95
69171;BME280;56279;47.902;12.308;2023-07-13T06:00:07;95517.75;;;18.65;91.63
69171;BME280;56279;47.902;12.308;2023-07-13T06:02:13;95518.78;;;18.72;91.55
69171;BME280;56279;47.902;12.308;2023-07-13T06:04:15;95521.09;;;18.82;91.93
69171;BME280;56279;47.902;12.308;2023-07-13T06:06:17;95523.59;;;18.87;91.41
69171;BME280;56279;47.902;12.308;2023-07-13T06:08:18;95528.31;;;18.90;91.55
69171;BME280;56279;47.902;12.308;2023-07-13T06:10:19;95530.66;;;18.92;91.20
69171;BME280;56279;47.902;12.308;2023-07-13T06:12:21;95530.00;;;18.95;91.05
69171;BME280;56279;47.902;12.308;2023-07-13T06:14:23;95527.91;;;19.00;91.76
69171;BME280;56279;47.902;12.308;2023-07-13T06:16:24;95524.84;;;19.10;91.59
69171;BME280;56279;47.902;12.308;2023-07-13T06:18:25;95531.38;;;19.21;91.65
69171;BME280;56279;47.902;12.308;2023-07-13T06:20:28;95528.19;;;19.28;91.43
69171;BME280;56279;47.902;12.308;2023-07-13T06:22:30;95521.84;;;19.32;91.41
69171;BME280;56279;47.902;12.308;2023-07-13T06:24:31;95524.38;;;19.38;91.02
69171;BME280;56279;47.902;12.308;2023-07-13T06:26:32;95514.09;;;19.40;90.56
69171;BME280;56279;47.902;12.308;2023-07-13T06:28:35;95510.66;;;19.39;90.74
69171;BME280;56279;47.902;12.308;2023-07-13T06:30:38;95514.09;;;19.40;91.19
69171;BME280;56279;47.902;12.308;2023-07-13T06:32:40;95521.03;;;19.41;91.04
69171;BME280;56279;47.902;12.308;2023-07-13T06:34:41;95521.03;;;19.41;91.12
69171;BME280;56279;47.902;12.308;2023-07-13T06:36:43;95525.59;;;19.40;91.04
69171;BME280;56279;47.902;12.308;2023-07-13T06:38:45;95525.31;;;19.42;91.46
69171;BME280;56279;47.902;12.308;2023-07-13T06:40:46;95528.72;;;19.42;90.50
69171;BME280;56279;47.902;12.308;2023-07-13T06:42:47;95530.66;;;19.42;91.31
69171;BME280;56279;47.902;12.308;2023-07-13T06:44:48;95525.41;;;19.45;91.03
69171;BME280;56279;47.902;12.308;2023-07-13T06:46:50;95529.34;;;19.48;90.59
69171;BME280;56279;47.902;12.308;2023-07-13T06:48:52;95525.66;;;19.52;90.21
69171;BME280;56279;47.902;12.308;2023-07-13T06:50:53;95539.84;;;19.53;89.89
69171;BME280;56279;47.902;12.308;2023-07-13T06:52:54;95541.72;;;19.52;90.42
69171;BME280;56279;47.902;12.308;2023-07-13T06:54:55;95551.19;;;19.50;90.24
69171;BME280;56279;47.902;12.308;2023-07-13T06:56:56;95556.91;;;19.48;90.21
69171;BME280;56279;47.902;12.308;2023-07-13T06:58:58;95555.97;;;19.44;89.88
69171;BME280;56279;47.902;12.308;2023-07-13T07:00:59;95555.50;;;19.42;90.28
69171;BME280;56279;47.902;12.308;2023-07-13T07:03:00;95561.19;;;19.41;90.22
69171;BME280;56279;47.902;12.308;2023-07-13T07:05:02;95558.19;;;19.42;90.32
69171;BME280;56279;47.902;12.308;2023-07-13T07:07:03;95552.19;;;19.45;89.75
69171;BME280;56279;47.902;12.308;2023-07-13T07:09:05;95545.50;;;19.51;89.62
69171;BME280;56279;47.902;12.308;2023-07-13T07:11:09;95536.28;;;19.61;89.83
69171;BME280;56279;47.902;12.308;2023-07-13T07:13:11;95537.59;;;19.75;89.03
69171;BME280;56279;47.902;12.308;2023-07-13T07:15:12;95537.09;;;19.94;88.38
69171;BME280;56279;47.902;12.308;2023-07-13T07:17:14;95541.63;;;20.14;87.38
69171;BME280;56279;47.902;12.308;2023-07-13T07:19:15;95541.69;;;20.26;86.67
69171;BME280;56279;47.902;12.308;2023-07-13T07:21:17;95548.97;;;20.38;86.08
69171;BME280;56279;47.902;12.308;2023-07-13T07:23:18;95549.19;;;20.45;85.75
69171;BME280;56279;47.902;12.308;2023-07-13T07:25:20;95546.19;;;20.46;84.72
69171;BME280;56279;47.902;12.308;2023-07-13T07:27:21;95554.56;;;20.45;84.79
69171;BME280;56279;47.902;12.308;2023-07-13T07:29:23;95551.78;;;20.41;84.96
69171;BME280;56279;47.902;12.308;2023-07-13T07:31:27;95556.44;;;20.44;85.12
69171;BME280;56279;47.902;12.308;2023-07-13T07:33:28;95560.50;;;20.50;84.73
69171;BME280;56279;47.902;12.308;2023-07-13T07:35:29;95560.28;;;20.55;84.41
69171;BME280;56279;47.902;12.308;2023-07-13T07:37:31;95556.69;;;20.63;84.23
69171;BME280;56279;47.902;12.308;2023-07-13T07:39:32;95561.50;;;20.70;83.77
69171;BME280;56279;47.902;12.308;2023-07-13T07:41:33;95565.88;;;20.75;84.00
69171;BME280;56279;47.902;12.308;2023-07-13T07:43:35;95563.31;;;20.78;83.78
69171;BME280;56279;47.902;12.308;2023-07-13T07:45:39;95570.00;;;20.84;83.43
69171;BME280;56279;47.902;12.308;2023-07-13T07:47:40;95563.19;;;20.87;82.43
69171;BME280;56279;47.902;12.308;2023-07-13T07:49:42;95571.25;;;20.87;82.56
69171;BME280;56279;47.902;12.308;2023-07-13T07:51:44;95568.09;;;20.85;82.62
69171;BME280;56279;47.902;12.308;2023-07-13T07:53:47;95578.84;;;20.85;81.81
69171;BME280;56279;47.902;12.308;2023-07-13T07:55:48;95582.31;;;20.85;82.34
69171;BME280;56279;47.902;12.308;2023-07-13T07:57:49;95585.44;;;20.87;82.37
69171;BME280;56279;47.902;12.308;2023-07-13T07:59:50;95572.25;;;20.94;82.72
69171;BME280;56279;47.902;12.308;2023-07-13T08:01:52;95576.72;;;21.02;81.60
69171;BME280;56279;47.902;12.308;2023-07-13T08:03:53;95577.66;;;21.06;81.22
69171;BME280;56279;47.902;12.308;2023-07-13T08:05:54;95581.34;;;21.14;80.95
69171;BME280;56279;47.902;12.308;2023-07-13T08:07:55;95590.63;;;21.16;80.61
69171;BME280;56279;47.902;12.308;2023-07-13T08:09:57;95590.63;;;21.16;80.04
69171;BME280;56279;47.902;12.308;2023-07-13T08:11:58;95587.72;;;21.09;80.32
69171;BME280;56279;47.902;12.308;2023-07-13T08:13:59;95592.97;;;21.06;80.14
69171;BME280;56279;47.902;12.308;2023-07-13T08:16:01;95588.72;;;21.05;79.72
69171;BME280;56279;47.902;12.308;2023-07-13T08:18:02;95592.97;;;21.06;79.96
69171;BME280;56279;47.902;12.308;2023-07-13T08:20:04;95594.19;;;21.08;80.00
69171;BME280;56279;47.902;12.308;2023-07-13T08:22:06;95590.50;;;21.13;79.75
69171;BME280;56279;47.902;12.308;2023-07-13T08:24:07;95585.25;;;21.16;79.73
69171;BME280;56279;47.902;12.308;2023-07-13T08:26:09;95579.97;;;21.20;79.48
69171;BME280;56279;47.902;12.308;2023-07-13T08:28:10;95580.84;;;21.24;78.87
69171;BME280;56279;47.902;12.308;2023-07-13T08:30:12;95583.75;;;21.31;78.36
69171;BME280;56279;47.902;12.308;2023-07-13T08:32:13;95586.44;;;21.43;76.89
69171;BME280;56279;47.902;12.308;2023-07-13T08:34:14;95587.78;;;21.49;76.67
69171;BME280;56279;47.902;12.308;2023-07-13T08:36:16;95584.84;;;21.54;76.89
69171;BME280;56279;47.902;12.308;2023-07-13T08:38:18;95589.88;;;21.56;76.46
69171;BME280;56279;47.902;12.308;2023-07-13T08:40:24;95583.16;;;21.62;76.28
69171;BME280;56279;47.902;12.308;2023-07-13T08:42:45;95599.16;;;21.70;76.07
69171;BME280;56279;47.902;12.308;2023-07-13T08:44:56;95604.72;;;21.77;76.25
69171;BME280;56279;47.902;12.308;2023-07-13T08:47:02;95606.28;;;21.90;75.68
69171;BME280;56279;47.902;12.308;2023-07-13T08:49:08;95611.19;;;22.00;75.98
69171;BME280;56279;47.902;12.308;2023-07-13T08:53:15;95618.44;;;22.00;74.79
69171;BME280;56279;47.902;12.308;2023-07-13T08:55:21;95610.28;;;21.96;75.05
69171;BME280;56279;47.902;12.308;2023-07-13T08:57:33;95608.22;;;22.06;75.65
69171;BME280;56279;47.902;12.308;2023-07-13T08:59:36;95608.59;;;22.20;75.16
69171;BME280;56279;47.902;12.308;2023-07-13T09:01:54;95621.22;;;22.31;75.25
69171;BME280;56279;47.902;12.308;2023-07-13T09:04:05;95615.06;;;22.31;72.96
69171;BME280;56279;47.902;12.308;2023-07-13T09:06:12;95617.56;;;22.24;71.52
69171;BME280;56279;47.902;12.308;2023-07-13T09:10:46;95622.69;;;22.29;71.62
69171;BME280;56279;47.902;12.308;2023-07-13T09:14:57;95625.28;;;22.25;70.32
69171;BME280;56279;47.902;12.308;2023-07-13T09:17:05;95622.75;;;22.17;70.50
69171;BME280;56279;47.902;12.308;2023-07-13T09:19:15;95624.69;;;22.04;70.88
69171;BME280;56279;47.902;12.308;2023-07-13T09:21:24;95630.66;;;21.97;70.35
69171;BME280;56279;47.902;12.308;2023-07-13T09:23:29;95628.13;;;21.89;70.44
69171;BME280;56279;47.902;12.308;2023-07-13T09:25:35;95627.09;;;21.93;70.03
69171;BME280;56279;47.902;12.308;2023-07-13T09:27:39;95629.28;;;22.03;70.42
69171;BME280;56279;47.902;12.308;2023-07-13T09:29:48;95624.91;;;22.11;70.56
69171;BME280;56279;47.902;12.308;2023-07-13T09:31:55;95616.47;;;22.13;69.46
69171;BME280;56279;47.902;12.308;2023-07-13T09:34:00;95630.63;;;22.10;69.06
69171;BME280;56279;47.902;12.308;2023-07-13T09:36:18;95627.03;;;22.06;68.96
69171;BME280;56279;47.902;12.308;2023-07-13T09:38:22;95623.91;;;22.03;68.90
69171;BME280;56279;47.902;12.308;2023-07-13T09:41:04;95632.69;;;22.00;69.35
69171;BME280;56279;47.902;12.308;2023-07-13T09:43:14;95633.81;;;21.87;69.54
69171;BME280;56279;47.902;12.308;2023-07-13T09:45:27;95633.16;;;21.78;69.20
69171;BME280;56279;47.902;12.308;2023-07-13T09:47:31;95636.19;;;21.77;69.15
69171;BME280;56279;47.902;12.308;2023-07-13T09:49:35;95634.41;;;21.69;68.27
69171;BME280;56279;47.902;12.308;2023-07-13T09:51:42;95634.09;;;21.58;68.24
69171;BME280;56279;47.902;12.308;2023-07-13T09:53:45;95629.38;;;21.55;68.00
69171;BME280;56279;47.902;12.308;2023-07-13T09:55:47;95634.31;;;21.53;67.49
69171;BME280;56279;47.902;12.308;2023-07-13T09:57:49;95632.75;;;21.52;67.76
69171;BME280;56279;47.902;12.308;2023-07-13T09:59:54;95632.66;;;21.49;68.59
69171;BME280;56279;47.902;12.308;2023-07-13T10:01:58;95628.38;;;21.48;68.74
69171;BME280;56279;47.902;12.308;2023-07-13T10:03:59;95632.97;;;21.47;68.84
69171;BME280;56279;47.902;12.308;2023-07-13T10:06:12;95639.03;;;21.44;69.29
69171;BME280;56279;47.902;12.308;2023-07-13T10:08:29;95645.19;;;21.45;69.06
69171;BME280;56279;47.902;12.308;2023-07-13T10:10:31;95644.94;;;21.50;68.91
69171;BME280;56279;47.902;12.308;2023-07-13T10:12:37;95651.44;;;21.61;68.64
69171;BME280;56279;47.902;12.308;2023-07-13T10:14:41;95654.34;;;21.56;68.50
69171;BME280;56279;47.902;12.308;2023-07-13T10:16:45;95654.13;;;21.49;69.22
69171;BME280;56279;47.902;12.308;2023-07-13T10:18:49;95654.00;;;21.57;69.43
69171;BME280;56279;47.902;12.308;2023-07-13T10:21:00;95656.00;;;21.72;69.27
69171;BME280;56279;47.902;12.308;2023-07-13T10:23:15;95663.28;;;21.84;68.61
69171;BME280;56279;47.902;12.308;2023-07-13T10:25:24;95661.84;;;21.86;68.41
69171;BME280;56279;47.902;12.308;2023-07-13T10:27:33;95668.09;;;21.90;68.11
69171;BME280;56279;47.902;12.308;2023-07-13T10:29:38;95677.16;;;21.86;67.09
69171;BME280;56279;47.902;12.308;2023-07-13T10:31:45;95674.81;;;21.84;67.02
69171;BME280;56279;47.902;12.308;2023-07-13T10:33:46;95670.22;;;21.85;67.51
69171;BME280;56279;47.902;12.308;2023-07-13T10:35:51;95667.53;;;21.85;66.87
69171;BME280;56279;47.902;12.308;2023-07-13T10:37:57;95666.75;;;21.84;66.95
69171;BME280;56279;47.902;12.308;2023-07-13T10:40:03;95670.75;;;21.78;67.26
69171;BME280;56279;47.902;12.308;2023-07-13T10:42:09;95683.63;;;21.73;67.32
69171;BME280;56279;47.902;12.308;2023-07-13T10:44:22;95687.47;;;21.72;67.95
69171;BME280;56279;47.902;12.308;2023-07-13T10:46:28;95680.19;;;21.72;68.07
69171;BME280;56279;47.902;12.308;2023-07-13T10:48:30;95686.25;;;21.69;67.82
69171;BME280;56279;47.902;12.308;2023-07-13T10:50:37;95691.63;;;21.57;67.85
69171;BME280;56279;47.902;12.308;2023-07-13T10:52:48;95696.31;;;21.48;67.95
69171;BME280;56279;47.902;12.308;2023-07-13T10:54:51;95697.78;;;21.33;68.36
69171;BME280;56279;47.902;12.308;2023-07-13T10:59:39;95712.38;;;21.00;69.41
69171;BME280;56279;47.902;12.308;2023-07-13T11:01:55;95712.44;;;20.91;69.33
69171;BME280;56279;47.902;12.308;2023-07-13T11:04:02;95711.56;;;20.87;68.79
69171;BME280;56279;47.902;12.308;2023-07-13T11:06:09;95698.94;;;20.88;68.89
69171;BME280;56279;47.902;12.308;2023-07-13T11:10:52;95701.38;;;20.81;69.74
69171;BME280;56279;47.902;12.308;2023-07-13T11:12:54;95703.91;;;20.77;69.54
69171;BME280;56279;47.902;12.308;2023-07-13T11:16:57;95710.03;;;20.53;71.36
69171;BME280;56279;47.902;12.308;2023-07-13T11:21:14;95713.69;;;20.28;71.29
69171;BME280;56279;47.902;12.308;2023-07-13T11:25:26;95706.09;;;20.10;73.07
69171;BME280;56279;47.902;12.308;2023-07-13T11:27:38;95701.50;;;20.10;73.50
69171;BME280;56279;47.902;12.308;2023-07-13T11:29:40;95702.91;;;20.16;74.00
69171;BME280;56279;47.902;12.308;2023-07-13T11:31:42;95697.03;;;20.23;73.62
69171;BME280;56279;47.902;12.308;2023-07-13T11:33:51;95699.00;;;20.34;74.48
69171;BME280;56279;47.902;12.308;2023-07-13T11:36:05;95693.44;;;20.51;74.70
69171;BME280;56279;47.902;12.308;2023-07-13T11:38:15;95703.47;;;20.75;74.86
69171;BME280;56279;47.902;12.308;2023-07-13T11:40:18;95697.38;;;20.99;74.38
69171;BME280;56279;47.902;12.308;2023-07-13T11:42:20;95687.28;;;21.16;74.47
69171;BME280;56279;47.902;12.308;2023-07-13T11:44:24;95688.25;;;21.36;73.96
69171;BME280;56279;47.902;12.308;2023-07-13T11:46:27;95691.41;;;21.50;72.76
69171;BME280;56279;47.902;12.308;2023-07-13T11:48:29;95689.72;;;21.58;72.38
69171;BME280;56279;47.902;12.308;2023-07-13T11:50:32;95685.56;;;21.60;72.28
69171;BME280;56279;47.902;12.308;2023-07-13T11:52:36;95685.66;;;21.64;72.29
69171;BME280;56279;47.902;12.308;2023-07-13T11:54:49;95681.97;;;21.68;72.08
69171;BME280;56279;47.902;12.308;2023-07-13T11:57:02;95673.25;;;21.71;72.01
69171;BME280;56279;47.902;12.308;2023-07-13T11:59:08;95665.84;;;21.68;70.51
69171;BME280;56279;47.902;12.308;2023-07-13T12:01:21;95654.44;;;21.59;71.00
69171;BME280;56279;47.902;12.308;2023-07-13T12:03:24;95663.66;;;21.58;70.87
69171;BME280;56279;47.902;12.308;2023-07-13T12:05:26;95657.94;;;21.60;70.78
69171;BME280;56279;47.902;12.308;2023-07-13T12:07:30;95659.94;;;21.63;69.99
69171;BME280;56279;47.902;12.308;2023-07-13T12:09:33;95645.94;;;21.69;70.98
69171;BME280;56279;47.902;12.308;2023-07-13T12:11:35;95648.03;;;21.76;69.89
69171;BME280;56279;47.902;12.308;2023-07-13T12:13:39;95640.09;;;21.79;69.94
69171;BME280;56279;47.902;12.308;2023-07-13T12:15:42;95642.22;;;21.86;69.08
69171;BME280;56279;47.902;12.308;2023-07-13T12:17:45;95641.31;;;21.94;67.66
69171;BME280;56279;47.902;12.308;2023-07-13T12:19:51;95636.25;;;22.05;67.77
69171;BME280;56279;47.902;12.308;2023-07-13T12:21:55;95640.25;;;22.11;67.39